createdAt,value
2019-04-04T00:00:07.363Z,15.25
2019-04-04T00:02:33.533Z,17.57
2019-04-04T00:04:59.768Z,16.07
2019-04-04T00:07:28.711Z,15.48
2019-04-04T00:09:53.809Z,16.02
2019-04-04T00:12:19.965Z,15.40
2019-04-04T00:14:46.153Z,18.05
2019-04-04T00:17:12.359Z,15.23
2019-04-04T00:19:38.492Z,17.02
2019-04-04T00:22:04.965Z,19.27
2019-04-04T00:24:31.754Z,15.72
2019-04-04T00:26:57.915Z,15.30
2019-04-04T00:29:24.065Z,16.67
2019-04-04T00:31:50.301Z,20.43
2019-04-04T00:34:16.609Z,15.55
2019-04-04T00:36:42.753Z,20.77
2019-04-04T00:39:09.576Z,17.55
2019-04-04T00:41:36.158Z,16.95
2019-04-04T00:44:02.338Z,13.70
2019-04-04T00:46:29.040Z,17.32
2019-04-04T00:48:56.381Z,21.50
2019-04-04T00:51:22.536Z,18.42
2019-04-04T00:53:48.760Z,14.63
2019-04-04T00:56:16.071Z,14.95
2019-04-04T00:58:42.806Z,14.70
2019-04-04T01:01:08.968Z,16.75
2019-04-04T01:03:35.140Z,17.05
2019-04-04T01:06:03.492Z,16.20
2019-04-04T01:08:29.189Z,16.95
2019-04-04T01:10:55.356Z,18.02
2019-04-04T01:13:23.650Z,17.23
2019-04-04T01:15:49.452Z,14.87
2019-04-04T01:18:15.598Z,16.23
2019-04-04T01:20:41.766Z,16.67
2019-04-04T01:23:08.016Z,12.78
2019-04-04T01:25:34.177Z,20.80
2019-04-04T01:28:00.346Z,21.60
2019-04-04T01:30:26.505Z,23.35
2019-04-04T01:32:52.676Z,38.42
2019-04-04T01:35:18.826Z,23.62
2019-04-04T01:37:44.989Z,31.45
2019-04-04T01:40:11.137Z,20.27
2019-04-04T01:42:38.770Z,21.73
2019-04-04T01:45:05.037Z,17.35
2019-04-04T01:47:31.208Z,18.85
2019-04-04T01:49:57.379Z,21.27
2019-04-04T01:52:23.530Z,23.27
2019-04-04T01:54:49.745Z,17.57
2019-04-04T01:57:16.037Z,20.70
2019-04-04T01:59:43.928Z,17.25
2019-04-04T02:02:10.077Z,19.37
2019-04-04T02:04:36.428Z,18.23
2019-04-04T02:07:02.588Z,18.32
2019-04-04T02:09:28.757Z,19.98
2019-04-04T02:11:55.154Z,16.65
2019-04-04T02:14:21.324Z,21.55
2019-04-04T02:16:51.020Z,18.92
2019-04-04T02:19:15.358Z,154.50
2019-04-04T02:21:41.516Z,39.65
2019-04-04T02:24:07.665Z,28.67
2019-04-04T02:26:35.792Z,19.90
2019-04-04T02:29:01.717Z,21.25
2019-04-04T02:31:27.870Z,20.27
2019-04-04T02:33:54.122Z,18.27
2019-04-04T02:36:20.291Z,19.12
2019-04-04T02:38:46.457Z,17.30
2019-04-04T02:41:15.347Z,16.40
2019-04-04T02:43:40.580Z,18.48
2019-04-04T02:46:11.194Z,19.90
2019-04-04T02:48:34.614Z,15.72
2019-04-04T02:51:00.780Z,17.85
2019-04-04T02:53:27.000Z,21.30
2019-04-04T02:55:53.175Z,25.68
2019-04-04T02:58:19.337Z,20.27
2019-04-04T03:00:45.493Z,17.07
2019-04-04T03:03:11.713Z,22.87
2019-04-04T03:05:37.888Z,16.48
2019-04-04T03:08:04.606Z,19.73
2019-04-04T03:10:30.869Z,17.05
2019-04-04T03:12:58.697Z,19.15
2019-04-04T03:15:24.956Z,18.32
2019-04-04T03:17:51.121Z,15.80
2019-04-04T03:20:17.672Z,14.73
2019-04-04T03:22:44.021Z,15.20
2019-04-04T03:25:14.268Z,15.95
2019-04-04T03:27:38.079Z,16.27
2019-04-04T03:30:04.240Z,16.75
2019-04-04T03:32:30.382Z,21.97
2019-04-04T03:34:56.571Z,15.68
2019-04-04T03:37:22.699Z,16.77
2019-04-04T03:39:51.876Z,18.10
2019-04-04T03:42:16.761Z,18.23
2019-04-04T03:44:42.931Z,15.65
2019-04-04T03:47:10.427Z,17.92
2019-04-04T03:49:36.970Z,17.45
2019-04-04T03:52:03.127Z,18.45
2019-04-04T03:54:29.328Z,17.20
2019-04-04T03:56:55.482Z,16.77
2019-04-04T03:59:21.641Z,17.10
2019-04-04T04:01:47.793Z,39.00
2019-04-04T04:04:14.028Z,23.95
2019-04-04T04:06:41.958Z,18.50
2019-04-04T04:09:08.068Z,18.30
2019-04-04T04:11:34.690Z,21.42
2019-04-04T04:14:02.126Z,31.65
2019-04-04T04:16:28.305Z,35.90
2019-04-04T04:18:55.375Z,33.18
2019-04-04T04:21:22.178Z,19.07
2019-04-04T04:23:49.971Z,21.15
2019-04-04T04:26:16.370Z,16.82
2019-04-04T04:28:42.529Z,16.10
2019-04-04T04:31:08.701Z,18.75
2019-04-04T04:33:34.930Z,16.95
2019-04-04T04:36:01.089Z,19.75
2019-04-04T04:38:27.247Z,13.62
2019-04-04T04:40:53.404Z,17.27
2019-04-04T04:43:19.630Z,15.45
2019-04-04T04:45:45.791Z,17.15
2019-04-04T04:48:11.951Z,15.40
2019-04-04T04:50:40.175Z,16.97
2019-04-04T04:53:06.097Z,16.32
2019-04-04T04:55:32.261Z,19.25
2019-04-04T04:57:58.429Z,17.95
2019-04-04T05:00:27.488Z,21.45
2019-04-04T05:02:53.209Z,21.93
2019-04-04T05:05:19.901Z,29.02
2019-04-04T05:07:46.048Z,25.68
2019-04-04T05:10:12.951Z,29.67
2019-04-04T05:12:40.098Z,25.68
2019-04-04T05:15:06.266Z,30.02
2019-04-04T05:17:32.423Z,25.45
2019-04-04T05:19:58.587Z,23.32
2019-04-04T05:22:24.750Z,25.32
2019-04-04T05:25:06.777Z,24.80
2019-04-04T05:27:18.784Z,25.08
2019-04-04T05:29:45.562Z,24.50
2019-04-04T05:32:11.787Z,20.40
2019-04-04T05:34:37.944Z,25.82
2019-04-04T05:37:05.132Z,24.35
2019-04-04T05:39:31.993Z,24.05
2019-04-04T05:42:00.505Z,21.48
2019-04-04T05:44:26.047Z,22.80
2019-04-04T05:46:52.221Z,24.60
2019-04-04T05:49:18.360Z,23.77
2019-04-04T05:51:46.313Z,28.00
2019-04-04T05:54:12.452Z,24.47
2019-04-04T05:56:38.609Z,29.95
2019-04-04T05:59:04.756Z,25.72
2019-04-04T06:01:30.938Z,22.30
2019-04-04T06:03:57.106Z,21.07
2019-04-04T06:06:23.251Z,26.20
2019-04-04T06:08:49.422Z,22.17
2019-04-04T06:11:15.589Z,24.55
2019-04-04T06:13:41.777Z,21.42
2019-04-04T06:16:07.943Z,25.80
2019-04-04T06:18:34.102Z,20.52
2019-04-04T06:21:00.258Z,22.87
2019-04-04T06:23:26.481Z,18.87
2019-04-04T06:25:52.644Z,22.00
2019-04-04T06:28:18.805Z,19.57
2019-04-04T06:30:44.975Z,20.92
2019-04-04T06:33:11.197Z,30.20
2019-04-04T06:35:39.776Z,22.55
2019-04-04T06:38:05.233Z,27.32
2019-04-04T06:40:31.393Z,27.70
2019-04-04T06:42:57.581Z,46.63
2019-04-04T06:45:23.733Z,32.95
2019-04-04T06:47:49.901Z,28.45
2019-04-04T06:50:16.057Z,32.48
2019-04-04T06:52:42.295Z,24.75
2019-04-04T06:55:08.453Z,28.35
2019-04-04T06:57:36.746Z,22.07
2019-04-04T07:00:02.497Z,28.70
2019-04-04T07:02:28.712Z,30.97
2019-04-04T07:04:54.873Z,25.30
2019-04-04T07:07:21.032Z,30.05
2019-04-04T07:09:48.201Z,24.92
2019-04-04T07:12:22.234Z,23.83
2019-04-04T07:14:45.910Z,20.77
2019-04-04T07:17:10.871Z,27.25
2019-04-04T07:19:37.031Z,21.77
2019-04-04T07:22:03.196Z,25.20
2019-04-04T07:24:31.158Z,23.40
2019-04-04T07:26:57.228Z,25.17
2019-04-04T07:29:25.192Z,22.17
2019-04-04T07:31:51.262Z,20.92
2019-04-04T07:34:17.429Z,19.77
2019-04-04T07:36:43.600Z,19.00
2019-04-04T07:39:12.251Z,16.70
2019-04-04T07:41:40.177Z,19.35
2019-04-04T07:44:05.570Z,20.12
2019-04-04T07:46:31.737Z,21.93
2019-04-04T07:48:57.893Z,18.90
2019-04-04T07:51:24.040Z,21.17
2019-04-04T07:53:50.204Z,19.70
2019-04-04T07:56:16.361Z,19.25
2019-04-04T07:58:42.528Z,14.78
2019-04-04T08:01:08.692Z,22.48
2019-04-04T08:03:34.893Z,17.95
2019-04-04T08:06:01.055Z,18.12
2019-04-04T08:08:27.208Z,17.32
2019-04-04T08:10:53.369Z,15.72
2019-04-04T08:13:19.607Z,15.98
2019-04-04T08:15:45.761Z,16.40
2019-04-04T08:18:11.920Z,16.12
2019-04-04T08:20:38.085Z,17.92
2019-04-04T08:23:04.344Z,15.10
2019-04-04T08:25:30.510Z,16.95
2019-04-04T08:27:56.681Z,15.43
2019-04-04T08:30:22.834Z,15.68
2019-04-04T08:32:49.060Z,15.72
2019-04-04T08:35:15.218Z,16.62
2019-04-04T08:37:41.385Z,21.05
2019-04-04T08:40:07.549Z,17.82
2019-04-04T08:42:33.773Z,15.32
2019-04-04T08:44:59.930Z,14.90
2019-04-04T08:47:26.095Z,15.23
2019-04-04T08:49:52.262Z,12.63
2019-04-04T08:52:20.763Z,17.35
2019-04-04T08:54:46.341Z,15.85
2019-04-04T08:57:12.488Z,14.85
2019-04-04T08:59:38.644Z,15.90
2019-04-04T09:02:04.812Z,14.13
2019-04-04T09:04:30.988Z,16.45
2019-04-04T09:06:57.147Z,17.45
2019-04-04T09:09:23.371Z,15.08
2019-04-04T09:11:49.585Z,12.30
2019-04-04T09:14:15.731Z,16.57
2019-04-04T09:16:41.883Z,13.90
2019-04-04T09:19:08.037Z,15.85
2019-04-04T09:21:34.222Z,14.05
2019-04-04T09:24:00.784Z,15.00
2019-04-04T09:26:27.130Z,11.22
2019-04-04T09:28:53.298Z,13.25
2019-04-04T09:31:19.465Z,13.90
2019-04-04T09:33:45.710Z,11.20
2019-04-04T09:36:11.862Z,13.85
2019-04-04T09:38:38.018Z,14.63
2019-04-04T09:41:04.437Z,12.40
2019-04-04T09:43:30.802Z,15.28
2019-04-04T09:45:56.967Z,12.53
2019-04-04T09:48:23.173Z,10.78
2019-04-04T09:50:49.290Z,12.13
2019-04-04T09:53:15.547Z,11.93
2019-04-04T09:55:41.713Z,12.75
2019-04-04T09:58:07.871Z,11.57
2019-04-04T10:00:34.018Z,11.95
2019-04-04T10:03:00.278Z,10.28
2019-04-04T10:05:26.431Z,10.90
2019-04-04T10:07:52.600Z,13.65
2019-04-04T10:10:18.759Z,11.25
2019-04-04T10:12:44.948Z,12.47
2019-04-04T10:15:11.122Z,12.47
2019-04-04T10:17:37.268Z,10.78
2019-04-04T10:20:03.426Z,12.98
2019-04-04T10:22:29.668Z,10.80
2019-04-04T10:24:55.839Z,10.93
2019-04-04T10:27:21.996Z,10.65
2019-04-04T10:29:48.148Z,10.38
2019-04-04T10:32:14.398Z,11.22
2019-04-04T10:34:40.556Z,12.70
2019-04-04T10:37:06.714Z,10.38
2019-04-04T10:39:32.969Z,11.90
2019-04-04T10:41:59.108Z,10.80
2019-04-04T10:44:25.268Z,11.53
2019-04-04T10:46:51.424Z,12.50
2019-04-04T10:49:17.605Z,11.25
2019-04-04T10:51:43.795Z,9.83
2019-04-04T10:54:09.964Z,11.25
2019-04-04T10:56:36.342Z,10.50
2019-04-04T10:59:02.576Z,9.28
2019-04-04T11:01:28.731Z,9.48
2019-04-04T11:03:54.879Z,9.48
2019-04-04T11:06:21.040Z,11.22
2019-04-04T11:08:47.201Z,10.03
2019-04-04T11:11:13.380Z,11.88
2019-04-04T11:13:39.524Z,11.03
2019-04-04T11:16:05.680Z,10.30
2019-04-04T11:18:31.843Z,8.63
2019-04-04T11:20:57.992Z,9.50
2019-04-04T11:23:24.193Z,9.15
2019-04-04T11:25:50.338Z,8.20
2019-04-04T11:28:16.498Z,8.68
2019-04-04T11:30:42.652Z,9.78
2019-04-04T11:33:08.906Z,11.20
2019-04-04T11:35:35.056Z,10.08
2019-04-04T11:38:01.218Z,9.50
2019-04-04T11:40:27.370Z,7.40
2019-04-04T11:42:53.532Z,10.63
2019-04-04T11:45:19.688Z,10.30
2019-04-04T11:47:45.830Z,8.35
2019-04-04T11:50:11.998Z,9.13
2019-04-04T11:52:38.191Z,8.23
2019-04-04T11:55:04.354Z,9.13
2019-04-04T11:57:30.517Z,7.37
2019-04-04T11:59:56.677Z,8.95
2019-04-04T12:02:22.906Z,7.33
2019-04-04T12:04:49.061Z,9.25
2019-04-04T12:07:15.223Z,11.15
2019-04-04T12:09:41.381Z,7.83
2019-04-04T12:12:07.551Z,11.25
2019-04-04T12:14:33.703Z,7.03
2019-04-04T12:16:59.867Z,8.80
2019-04-04T12:19:26.032Z,8.33
2019-04-04T12:21:52.233Z,9.08
2019-04-04T12:24:18.388Z,8.55
2019-04-04T12:26:44.531Z,9.45
2019-04-04T12:29:10.682Z,9.63
2019-04-04T12:31:36.841Z,7.97
2019-04-04T12:34:03.008Z,9.40
2019-04-04T12:36:29.170Z,8.20
2019-04-04T12:38:55.326Z,6.37
2019-04-04T12:41:21.510Z,9.03
2019-04-04T12:43:47.664Z,6.95
2019-04-04T12:46:13.821Z,9.10
2019-04-04T12:48:39.966Z,8.33
2019-04-04T12:51:06.153Z,7.85
2019-04-04T12:53:32.813Z,7.15
2019-04-04T12:55:59.150Z,7.20
2019-04-04T12:58:25.311Z,8.15
2019-04-04T13:00:51.463Z,8.15
2019-04-04T13:03:17.644Z,8.35
2019-04-04T13:05:43.804Z,11.08
2019-04-04T13:08:09.949Z,7.83
2019-04-04T13:10:36.107Z,8.30
2019-04-04T13:13:02.324Z,8.90
2019-04-04T13:15:28.490Z,7.75
2019-04-04T13:17:54.657Z,8.43
2019-04-04T13:20:20.811Z,8.40
2019-04-04T13:22:47.071Z,8.00
2019-04-04T13:25:13.226Z,6.97
2019-04-04T13:27:39.381Z,8.53
2019-04-04T13:30:05.535Z,9.15
2019-04-04T13:32:31.759Z,7.00
2019-04-04T13:34:59.609Z,9.25
2019-04-04T13:37:25.788Z,7.65
2019-04-04T13:39:51.955Z,9.35
2019-04-04T13:42:18.137Z,6.37
2019-04-04T13:44:44.993Z,5.72
2019-04-04T13:47:11.331Z,6.95
2019-04-04T13:49:37.480Z,8.33
2019-04-04T13:52:03.687Z,7.08
2019-04-04T13:54:29.807Z,7.25
2019-04-04T13:56:55.975Z,6.58
2019-04-04T13:59:22.140Z,6.08
2019-04-04T14:01:48.350Z,7.30
2019-04-04T14:04:14.516Z,6.55
2019-04-04T14:06:40.674Z,6.72
2019-04-04T14:09:06.841Z,6.87
2019-04-04T14:11:33.064Z,6.35
2019-04-04T14:13:59.217Z,6.78
2019-04-04T14:16:25.376Z,6.55
2019-04-04T14:18:51.529Z,7.08
2019-04-04T14:21:17.698Z,6.90
2019-04-04T14:23:45.319Z,8.30
2019-04-04T14:26:11.604Z,6.65
2019-04-04T14:28:37.759Z,6.12
2019-04-04T14:31:03.925Z,7.90
2019-04-04T14:33:30.082Z,5.35
2019-04-04T14:35:56.223Z,6.80
2019-04-04T14:38:22.382Z,6.78
2019-04-04T14:40:48.613Z,5.95
2019-04-04T14:43:14.771Z,6.97
2019-04-04T14:45:40.931Z,7.03
2019-04-04T14:48:10.626Z,6.55
2019-04-04T14:50:34.976Z,6.90
2019-04-04T14:53:01.224Z,5.30
2019-04-04T14:55:27.435Z,7.05
2019-04-04T14:57:53.610Z,7.58
2019-04-04T15:00:19.762Z,5.80
2019-04-04T15:02:45.954Z,6.03
2019-04-04T15:05:12.114Z,8.08
2019-04-04T15:07:38.283Z,7.00
2019-04-04T15:10:04.431Z,6.92
2019-04-04T15:12:30.670Z,7.58
2019-04-04T15:14:56.834Z,6.67
2019-04-04T15:17:22.981Z,6.22
2019-04-04T15:19:49.134Z,6.55
2019-04-04T15:22:15.350Z,6.80
2019-04-04T15:24:41.596Z,6.25
2019-04-04T15:27:07.755Z,6.22
2019-04-04T15:29:33.904Z,6.30
2019-04-04T15:32:00.096Z,6.08
2019-04-04T15:34:26.250Z,4.87
2019-04-04T15:36:52.409Z,6.53
2019-04-04T15:39:18.566Z,6.12
2019-04-04T15:41:44.712Z,6.35
2019-04-04T15:44:10.880Z,7.70
2019-04-04T15:46:37.045Z,6.05
2019-04-04T15:49:03.199Z,7.53
2019-04-04T15:51:29.416Z,6.28
2019-04-04T15:53:55.571Z,8.28
2019-04-04T15:56:21.733Z,6.97
2019-04-04T15:58:47.886Z,6.30
2019-04-04T16:01:14.100Z,7.10
2019-04-04T16:03:40.255Z,6.87
2019-04-04T16:06:06.488Z,6.92
2019-04-04T16:08:32.651Z,7.12
2019-04-04T16:10:59.821Z,5.75
2019-04-04T16:13:26.083Z,7.75
2019-04-04T16:15:52.255Z,6.05
2019-04-04T16:18:18.412Z,8.15
2019-04-04T16:20:44.567Z,7.67
2019-04-04T16:23:10.723Z,8.15
2019-04-04T16:25:36.879Z,6.67
2019-04-04T16:28:03.049Z,5.65
2019-04-04T16:30:29.202Z,6.12
2019-04-04T16:32:55.378Z,6.17
2019-04-04T16:35:21.529Z,5.70
2019-04-04T16:37:47.694Z,6.47
2019-04-04T16:40:13.836Z,8.13
2019-04-04T16:42:40.030Z,6.17
2019-04-04T16:45:07.544Z,7.03
2019-04-04T16:47:33.909Z,6.42
2019-04-04T16:50:00.075Z,5.50
2019-04-04T16:52:26.277Z,6.85
2019-04-04T16:54:53.777Z,6.65
2019-04-04T16:57:20.119Z,7.17
2019-04-04T16:59:46.234Z,6.60
2019-04-04T17:02:12.422Z,6.42
2019-04-04T17:04:38.570Z,7.62
2019-04-04T17:07:04.722Z,6.33
2019-04-04T17:09:30.882Z,6.67
2019-04-04T17:11:57.109Z,6.05
2019-04-04T17:14:23.276Z,29.05
2019-04-04T17:16:49.436Z,20.32
2019-04-04T17:19:15.610Z,19.00
2019-04-04T17:21:41.817Z,21.93
2019-04-04T17:24:07.979Z,21.27
2019-04-04T17:26:34.137Z,26.73
2019-04-04T17:29:00.294Z,25.88
2019-04-04T17:31:26.455Z,21.90
2019-04-04T17:33:52.704Z,18.10
2019-04-04T17:36:21.248Z,20.57
2019-04-04T17:38:47.086Z,25.52
2019-04-04T17:41:13.969Z,23.27
2019-04-04T17:43:40.333Z,20.88
2019-04-04T17:46:06.950Z,24.37
2019-04-04T17:48:33.574Z,23.52
2019-04-04T17:51:00.038Z,32.58
2019-04-04T17:53:26.190Z,29.90
2019-04-04T17:55:54.838Z,35.58
2019-04-04T17:58:20.765Z,37.05
2019-04-04T18:00:47.122Z,24.82
2019-04-04T18:03:13.540Z,23.18
2019-04-04T18:05:39.685Z,27.07
2019-04-04T18:08:05.879Z,25.30
2019-04-04T18:10:32.037Z,29.48
2019-04-04T18:12:58.281Z,21.60
2019-04-04T18:15:24.450Z,23.00
2019-04-04T18:17:50.658Z,28.85
2019-04-04T18:20:16.815Z,20.57
2019-04-04T18:22:42.973Z,22.87
2019-04-04T18:25:09.138Z,19.27
2019-04-04T18:27:35.282Z,19.67
2019-04-04T18:30:01.429Z,20.60
2019-04-04T18:32:27.589Z,17.70
2019-04-04T18:34:53.751Z,22.10
2019-04-04T18:37:19.898Z,21.85
2019-04-04T18:39:46.109Z,22.80
2019-04-04T18:42:12.300Z,26.42
2019-04-04T18:44:38.523Z,19.77
2019-04-04T18:47:04.668Z,21.37
2019-04-04T18:49:31.071Z,19.62
2019-04-04T18:51:57.344Z,20.97
2019-04-04T18:54:23.505Z,18.37
2019-04-04T18:56:49.667Z,26.93
2019-04-04T18:59:15.831Z,36.75
2019-04-04T19:01:42.065Z,47.48
2019-04-04T19:04:08.213Z,62.35
2019-04-04T19:06:34.372Z,56.10
2019-04-04T19:09:00.522Z,66.65
2019-04-04T19:11:26.780Z,73.05
2019-04-04T19:13:52.950Z,78.00
2019-04-04T19:16:19.094Z,60.52
2019-04-04T19:18:45.248Z,60.12
2019-04-04T19:21:11.462Z,66.45
2019-04-04T19:23:48.609Z,71.92
2019-04-04T19:26:05.509Z,61.05
2019-04-04T19:28:31.666Z,56.33
2019-04-04T19:30:58.655Z,53.65
2019-04-04T19:33:24.987Z,63.20
2019-04-04T19:35:51.172Z,47.05
2019-04-04T19:38:17.347Z,58.35
2019-04-04T19:40:43.547Z,51.35
2019-04-04T19:43:18.067Z,46.95
2019-04-04T19:45:37.630Z,50.23
2019-04-04T19:48:03.789Z,51.50
2019-04-04T19:50:30.002Z,42.62
2019-04-04T19:52:56.160Z,56.13
2019-04-04T19:55:22.330Z,51.58
2019-04-04T19:57:48.679Z,43.52
2019-04-04T20:00:14.840Z,51.77
2019-04-04T20:02:43.786Z,41.68
2019-04-04T20:05:08.882Z,45.65
2019-04-04T20:07:35.054Z,54.45
2019-04-04T20:10:01.205Z,44.73
2019-04-04T20:12:27.366Z,40.23
2019-04-04T20:14:53.528Z,48.60
2019-04-04T20:17:19.686Z,45.67
2019-04-04T20:19:45.854Z,35.98
2019-04-04T20:22:12.109Z,45.60
2019-04-04T20:24:38.296Z,37.38
2019-04-04T20:27:04.464Z,41.33
2019-04-04T20:29:30.608Z,33.63
2019-04-04T20:31:56.771Z,33.05
2019-04-04T20:34:22.918Z,45.15
2019-04-04T20:36:49.077Z,28.83
2019-04-04T20:39:15.236Z,39.13
2019-04-04T20:41:41.465Z,25.62
2019-04-04T20:44:07.632Z,35.10
2019-04-04T20:46:33.792Z,26.25
2019-04-04T20:48:59.953Z,30.30
2019-04-04T20:51:26.149Z,33.28
2019-04-04T20:53:52.305Z,33.88
2019-04-04T20:56:18.462Z,31.62
2019-04-04T20:58:44.623Z,28.07
2019-04-04T21:01:10.860Z,31.75
2019-04-04T21:03:37.020Z,24.80
2019-04-04T21:06:03.406Z,33.45
2019-04-04T21:08:29.690Z,33.75
2019-04-04T21:10:55.869Z,34.27
2019-04-04T21:13:21.980Z,33.28
2019-04-04T21:15:48.170Z,42.48
2019-04-04T21:18:14.339Z,31.15
2019-04-04T21:20:40.519Z,34.60
2019-04-04T21:23:06.693Z,39.55
2019-04-04T21:25:32.873Z,40.73
2019-04-04T21:27:59.027Z,39.18
2019-04-04T21:30:25.199Z,33.42
2019-04-04T21:32:51.369Z,31.87
2019-04-04T21:35:17.539Z,35.28
2019-04-04T21:37:43.686Z,26.45
2019-04-04T21:40:09.947Z,29.90
2019-04-04T21:42:36.105Z,25.45
2019-04-04T21:45:02.273Z,27.80
2019-04-04T21:47:28.454Z,23.87
2019-04-04T21:49:54.609Z,18.82
2019-04-04T21:52:21.746Z,25.65
2019-04-04T21:54:47.914Z,24.47
2019-04-04T21:57:14.069Z,26.45
2019-04-04T21:59:40.229Z,26.25
2019-04-04T22:02:06.382Z,21.97
2019-04-04T22:04:32.554Z,26.48
2019-04-04T22:06:58.714Z,22.35
2019-04-04T22:09:24.881Z,20.90
2019-04-04T22:11:51.104Z,20.23
2019-04-04T22:14:22.097Z,20.77
2019-04-04T22:16:45.161Z,21.93
2019-04-04T22:19:11.313Z,21.95
2019-04-04T22:21:37.481Z,20.77
2019-04-04T22:24:03.628Z,19.87
2019-04-04T22:26:29.800Z,23.18
2019-04-04T22:28:55.965Z,19.45
2019-04-04T22:31:22.165Z,18.60
2019-04-04T22:33:48.337Z,23.25
2019-04-04T22:36:14.494Z,24.25
2019-04-04T22:38:40.658Z,26.20
2019-04-04T22:41:06.878Z,20.30
2019-04-04T22:43:33.036Z,19.65
2019-04-04T22:45:59.208Z,23.27
2019-04-04T22:48:25.364Z,19.70
2019-04-04T22:50:51.616Z,17.30
2019-04-04T22:53:17.780Z,21.52
2019-04-04T22:55:43.948Z,17.73
2019-04-04T22:58:10.103Z,21.12
2019-04-04T23:00:36.299Z,20.48
2019-04-04T23:03:02.536Z,18.42
2019-04-04T23:05:28.683Z,22.27
2019-04-04T23:07:54.852Z,17.67
2019-04-04T23:10:21.017Z,20.25
2019-04-04T23:12:47.188Z,16.62
2019-04-04T23:15:13.356Z,21.40
2019-04-04T23:17:39.511Z,17.65
2019-04-04T23:20:05.757Z,23.83
2019-04-04T23:22:31.908Z,18.40
2019-04-04T23:24:58.065Z,21.15
2019-04-04T23:27:24.278Z,19.90
2019-04-04T23:29:50.468Z,21.05
2019-04-04T23:32:16.636Z,18.37
2019-04-04T23:34:42.793Z,18.85
2019-04-04T23:37:08.957Z,21.82
2019-04-04T23:39:35.127Z,18.37
2019-04-04T23:42:01.273Z,19.55
2019-04-04T23:44:27.438Z,19.00
2019-04-04T23:46:53.598Z,18.05
2019-04-04T23:49:19.762Z,16.30
2019-04-04T23:51:45.929Z,23.20
2019-04-04T23:54:12.090Z,17.70
2019-04-04T23:56:38.250Z,22.58
2019-04-04T23:59:04.409Z,19.20
